KARA/ARA METAR and TAF weather

Enter ICAO airport designator
Station Type Date Time Source
KARA METAR 2020/07/09 23:53 UTC NOAA

KARA 092353Z 20011KT 10SM CLR 31/26 A2995 RMK AO2 SLP140 T03060256 10333 20306 55003 $


Station Type Date Time Source
KARA Decoded METAR 2020/07/09 23:53 UTC NOAA

NEW IBERIA ACADIANA REGIONAL, LA, United States (KARA) 30-02N 091-53W 18M
Jul 09, 2020 - 07:53 PM EDT / 2020.07.09 2353 UTC
Wind: from the SSW (200 degrees) at 13 MPH (11 KT):0
Visibility: 10 mile(s):0
Sky conditions: clear
Temperature: 87.1 F (30.6 C)
Heat index: 99.9 F (37.7 C):1
Dew Point: 78.1 F (25.6 C)
Relative Humidity: 74%
Pressure (altimeter): 29.95 in. Hg (1014 hPa)
Pressure tendency: 0.01 inches (0.3 hPa) lower than three hours ago
ob: KARA 092353Z 20011KT 10SM CLR 31/26 A2995 RMK AO2 SLP140 T03060256 10333 20306 55003
cycle: 0

Station Type Date Time Source
KARA TAF 2020/07/09 18:24 UTC NOAA

TAF KARA 091720Z 0918/1018 24010KT P6SM SCT030
FM100100 21005KT P6SM SKC
FM101400 26010KT P6SM BKN020

Example: see airport list